Weather reports worldwide

Advertisment
Dona Mencia, Spain (8412): temperature & dewpoint: 20.10.2020 21:00:00 - 26.10.2020 21:00:00 (CET)Dona Mencia, Spain (8412): wind speed & gusts: 20.10.2020 21:00:00 - 26.10.2020 21:00:00 (CET)Dona Mencia, Spain (8412): wind direction: 20.10.2020 21:00:00 - 26.10.2020 21:00:00 (CET)Dona Mencia, Spain (8412): precipitation: 20.10.2020 21:00:00 - 26.10.2020 21:00:00 (CET)
Date & Time tt [°C] td [°C] ff [km/h] ff [kn] fx [km/h] fx [kn] dd rr [mm]
26.10.2020 21:00:00 9,8 3,6 5 3 9 5 E 0,0
26.10.2020 20:00:00 11,0 3,2 3 2 11 6 NE 0,0
26.10.2020 19:00:00 11,7 3,8 7 4 13 7 N -
26.10.2020 18:00:00 14,2 4,5 4 2 14 8 WNW 0,0
26.10.2020 17:00:00 13,9 3,6 8 4 28 15 NW 0,0
26.10.2020 16:00:00 13,3 4,6 7 4 23 12 NW 0,0
26.10.2020 15:00:00 14,1 5,0 9 5 23 12 NW 0,0
26.10.2020 14:00:00 13,3 5,0 9 5 20 11 NW 0,0
26.10.2020 13:00:00 12,9 5,1 10 5 23 13 NW -
26.10.2020 12:00:00 12,3 6,8 10 6 21 11 NW 0,0
26.10.2020 11:00:00 11,2 7,7 12 6 21 12 WNW 0,0
26.10.2020 10:00:00 10,2 10,0 9 5 24 13 WNW 0,0
26.10.2020 09:00:00 9,5 9,3 11 6 18 10 WNW 0,0
26.10.2020 08:00:00 8,8 8,7 8 4 14 8 WNW 0,0
26.10.2020 07:00:00 9,2 9,0 4 2 15 8 WNW -
26.10.2020 06:00:00 9,7 9,6 7 4 19 10 WNW 0,0
26.10.2020 05:00:00 10,3 10,2 8 4 19 11 WNW 0,0
26.10.2020 04:00:00 10,3 10,2 7 4 23 13 WNW 0,7
26.10.2020 03:00:00 10,3 10,2 12 7 36 20 NW 1,5
26.10.2020 02:00:00 12,1 12,0 14 8 44 24 WNW 0,8
26.10.2020 01:00:00 12,6 12,4 23 13 57 31 NW -
26.10.2020 00:00:00 14,0 13,9 30 16 53 28 W 1,7
25.10.2020 23:00:00 13,6 13,3 27 14 51 28 W 0,0
25.10.2020 22:00:00 14,6 11,3 26 14 45 24 W 0,0
25.10.2020 21:00:00 15,0 10,2 22 12 41 22 W 0,0
25.10.2020 20:00:00 15,2 9,9 25 13 48 26 W 0,0
25.10.2020 19:00:00 15,3 9,2 21 12 39 21 W -
25.10.2020 18:00:00 15,2 8,9 17 9 35 19 W 0,0
25.10.2020 17:00:00 15,8 7,8 17 9 39 21 W 0,0
25.10.2020 16:00:00 16,4 7,8 19 10 39 21 W 0,0
25.10.2020 15:00:00 16,9 8,4 18 10 34 18 W 0,0
25.10.2020 14:00:00 15,5 8,9 21 11 37 20 WNW 0,0
25.10.2020 13:00:00 15,7 9,2 16 9 29 16 W -
25.10.2020 12:00:00 15,4 9,6 16 8 28 15 W 0,0
25.10.2020 11:00:00 14,2 10,2 12 7 24 13 WNW 0,0
25.10.2020 10:00:00 13,5 10,3 14 7 23 12 WNW 0,0
25.10.2020 09:00:00 12,3 11,3 7 4 14 8 W 0,0
25.10.2020 08:00:00 11,8 11,7 3 2 10 5 NW 0,0
25.10.2020 07:00:00 12,0 11,9 2 1 9 5 WNW -
25.10.2020 06:00:00 12,1 12,0 4 2 16 9 WNW 0,0
25.10.2020 05:00:00 11,9 11,8 7 4 13 7 NNW 0,0
25.10.2020 04:00:00 12,1 12,0 3 2 14 7 WNW 0,0
25.10.2020 03:00:00 12,6 12,0 3 2 17 9 W 0,0
25.10.2020 02:00:00 13,0 10,9 3 2 13 7 NW 0,0
25.10.2020 01:00:00 - - - - - - - -
25.10.2020 00:00:00 13,7 9,2 1 1 12 7 SSW 0,0
24.10.2020 23:00:00 14,0 9,8 1 1 12 6 W 0,0
24.10.2020 22:00:00 14,2 9,7 0 0 6 3 WNW 0,0
24.10.2020 21:00:00 13,8 10,2 1 1 6 3 NW 0,0
24.10.2020 20:00:00 14,1 10,6 0 0 4 2 W 0,0
24.10.2020 19:00:00 14,5 10,8 0 0 12 7 ESE -
24.10.2020 18:00:00 16,5 10,2 8 5 18 10 NW 0,0
24.10.2020 17:00:00 17,2 9,3 10 5 19 10 NW 0,0
24.10.2020 16:00:00 17,2 8,7 13 7 21 11 WNW 0,0
24.10.2020 15:00:00 16,8 10,2 9 5 21 12 NW 0,0
24.10.2020 14:00:00 17,3 11,1 11 6 20 11 NW 0,0
24.10.2020 13:00:00 - - - - - - - -
24.10.2020 12:00:00 17,0 11,7 8 4 17 9 NW 0,0
24.10.2020 11:00:00 16,1 12,2 6 4 12 7 WNW 0,0
24.10.2020 10:00:00 15,2 12,5 0 0 0 0 N 0,0
24.10.2020 09:00:00 13,2 13,1 0 0 9 5 N 0,0
24.10.2020 08:00:00 11,9 11,8 1 0 8 4 E 0,0
24.10.2020 07:00:00 12,1 12,0 1 1 6 4 NE -
24.10.2020 06:00:00 12,0 11,9 4 2 7 4 NNW 0,0
24.10.2020 05:00:00 12,2 12,0 3 2 12 6 NW 0,0
24.10.2020 04:00:00 12,6 12,4 5 3 14 8 NNW 0,0
24.10.2020 03:00:00 12,6 12,4 5 3 14 7 NNW 0,0
24.10.2020 02:00:00 12,9 11,8 5 3 13 7 NW 0,0
24.10.2020 01:00:00 13,5 9,7 2 1 12 6 NW -
24.10.2020 00:00:00 14,2 9,7 0 0 9 5 NW 0,0
23.10.2020 23:00:00 14,0 9,2 0 0 5 3 WNW 0,0
23.10.2020 22:00:00 14,1 8,9 0 0 6 3 WSW 0,0
23.10.2020 21:00:00 14,7 9,0 0 0 6 3 WNW 0,0
23.10.2020 20:00:00 14,2 8,4 1 1 9 5 WNW 0,0
23.10.2020 19:00:00 14,5 7,1 6 3 16 9 NW -
23.10.2020 18:00:00 16,8 6,8 12 7 21 11 W 0,0
23.10.2020 17:00:00 18,2 7,6 11 6 22 12 W 0,0
23.10.2020 16:00:00 18,0 7,1 15 8 24 13 W 0,0
23.10.2020 15:00:00 18,5 7,3 14 8 26 14 WNW 0,0
23.10.2020 14:00:00 17,6 7,0 14 8 27 15 WNW 0,0
23.10.2020 13:00:00 17,3 7,6 14 8 25 13 WNW -
23.10.2020 12:00:00 16,3 8,5 16 8 26 14 WNW 0,0
23.10.2020 11:00:00 16,3 9,3 11 6 22 12 W 0,0
23.10.2020 10:00:00 15,3 9,2 7 4 14 7 W 0,0
23.10.2020 09:00:00 13,4 10,5 1 1 11 6 WNW 0,0
23.10.2020 08:00:00 12,5 10,5 1 1 8 5 NW 0,0
23.10.2020 07:00:00 12,3 10,2 2 1 11 6 SW -
23.10.2020 06:00:00 12,2 11,9 1 1 13 7 W 0,0
23.10.2020 05:00:00 12,5 12,3 9 5 21 12 W 0,0
23.10.2020 04:00:00 13,3 13,2 8 4 16 9 W 0,0
23.10.2020 03:00:00 13,1 12,7 9 5 26 14 WNW 0,0
23.10.2020 02:00:00 14,0 12,7 14 8 24 13 W 0,0
23.10.2020 01:00:00 13,8 12,3 7 4 33 18 WNW -
23.10.2020 00:00:00 14,6 12,8 17 9 32 18 W 0,0
22.10.2020 23:00:00 15,1 12,7 18 10 30 16 W 0,0
22.10.2020 22:00:00 14,4 14,2 11 6 21 11 WNW 0,0
22.10.2020 21:00:00 14,9 13,7 7 4 23 12 WNW 0,0
22.10.2020 20:00:00 15,8 11,6 8 4 27 14 WSW 0,0
22.10.2020 19:00:00 15,9 11,7 12 6 24 13 WSW -
22.10.2020 18:00:00 16,6 11,3 10 5 23 13 W 0,0
22.10.2020 17:00:00 17,2 12,3 6 4 22 12 SW 0,0
22.10.2020 16:00:00 17,0 12,7 6 3 21 12 W 0,0
22.10.2020 15:00:00 16,1 13,3 1 1 24 13 W 0,1
22.10.2020 14:00:00 16,1 12,6 12 6 25 14 SSW 0,0
22.10.2020 13:00:00 15,8 15,0 4 2 29 15 ESE -
22.10.2020 12:00:00 14,8 14,6 10 5 18 10 SE 1,5
22.10.2020 11:00:00 14,2 13,9 3 1 12 6 WNW 1,2
22.10.2020 10:00:00 14,6 13,5 1 1 14 8 SSE 1,1
22.10.2020 09:00:00 15,9 10,6 11 6 17 9 E 0,0
22.10.2020 08:00:00 15,7 10,0 3 2 15 8 ESE 0,0
22.10.2020 07:00:00 16,1 9,0 7 4 18 10 WNW -
22.10.2020 06:00:00 17,4 8,8 4 2 27 14 SW 0,0
22.10.2020 05:00:00 17,5 8,9 11 6 31 17 SSW 0,0
22.10.2020 04:00:00 17,1 8,5 19 10 35 19 S 0,0
22.10.2020 03:00:00 17,3 8,7 14 8 39 21 SSW 0,0
22.10.2020 02:00:00 16,8 9,0 22 12 34 19 S 0,0
22.10.2020 01:00:00 16,6 9,0 16 9 41 22 S -
22.10.2020 00:00:00 17,3 8,9 16 9 39 21 SSW 0,0
21.10.2020 23:00:00 17,6 9,7 16 9 38 20 SSW 0,0
21.10.2020 22:00:00 17,9 9,8 16 9 36 19 SW 0,0
21.10.2020 21:00:00 18,2 10,3 12 7 31 17 SW 0,0
21.10.2020 20:00:00 18,0 10,6 18 10 37 20 SSW 0,0
21.10.2020 19:00:00 17,7 11,2 17 9 27 15 S -
21.10.2020 18:00:00 17,5 12,0 13 7 23 12 S 0,0
21.10.2020 17:00:00 17,2 13,8 6 4 19 11 W 0,1
21.10.2020 16:00:00 16,2 13,0 4 2 23 12 WNW 0,2
21.10.2020 15:00:00 18,0 11,8 11 6 28 15 SSW 0,0
21.10.2020 14:00:00 17,8 11,8 13 7 32 17 SW 0,0
21.10.2020 13:00:00 17,3 11,3 19 11 36 20 W -
21.10.2020 12:00:00 17,1 11,1 16 9 34 19 SSW 0,0
21.10.2020 11:00:00 17,5 11,1 16 9 37 20 SW 0,0
21.10.2020 10:00:00 17,6 11,9 12 7 41 22 SW 0,0
21.10.2020 09:00:00 17,0 11,9 17 9 44 24 SW 0,0
21.10.2020 08:00:00 16,2 13,0 20 11 42 23 WSW 0,1
21.10.2020 07:00:00 16,5 11,9 18 10 43 23 SW -
21.10.2020 06:00:00 16,2 12,1 19 11 39 21 SSW 0,0
21.10.2020 05:00:00 15,3 12,6 15 8 50 27 SSW 0,2
21.10.2020 04:00:00 15,2 11,2 21 11 40 21 SW 0,2
21.10.2020 03:00:00 16,7 10,3 11 6 39 21 WSW 0,0
21.10.2020 02:00:00 16,7 9,8 23 12 45 24 W 0,0
21.10.2020 01:00:00 17,0 10,6 22 12 51 28 WSW -
21.10.2020 00:00:00 13,7 13,6 22 12 56 30 WSW 5,8
20.10.2020 23:00:00 15,1 14,6 34 19 69 37 W 2,4
20.10.2020 22:00:00 19,9 11,1 29 16 72 39 SW 0,0
20.10.2020 21:00:00 21,3 7,8 31 17 62 33 WSW 0,0

tt = temperature
td = dewpoint
ff = wind speed
fx = gusts
dd = wind direction
rr = precipitation

Next stations